LETP weather

Santo Tome Del Puerto Airport
Segovia, Castilla y León, Spain

Public forecast

Using degrees Celsius for public forecast. Weather courtesy of forecast.io.

Closest aviation weather report (METAR) to Santo Tome Del Puerto Airport

Closest report is Torrejón Airport, 43.0 nm (79.7 km) S. Retrieved 2019/10/13 22:00 UTC (13 minutes ago):

LETO 132200Z 04006KT CAVOK 15/13 Q1015 NOSIG

Closest aviation forecast (TAF) to Santo Tome Del Puerto Airport

Closest forecast is Torrejón Airport, 43.0 nm (79.7 km) S. Retrieved 2019/10/13 18:27 UTC (4 hours ago):

TAF LETO 131700Z 1318/1418 VRB05KT CAVOK TX23/1318Z TN11/1406Z BECMG 1407/1409 22015G25KT PROB40 TEMPO 1408/1418 22015G38KT PROB40 TEMPO 1407/1418 RA SHRA SCT040TCU